sensor_id;sensor_type;location;lat;lon;timestamp;temperature;humidity
25732;DHT22;13585;50.864;4.406;2023-06-26T00:01:56;30.80;45.40
25732;DHT22;13585;50.864;4.406;2023-06-26T00:04:28;30.90;46.00
25732;DHT22;13585;50.864;4.406;2023-06-26T00:07:00;30.90;45.40
25732;DHT22;13585;50.864;4.406;2023-06-26T00:09:25;30.90;45.40
25732;DHT22;13585;50.864;4.406;2023-06-26T00:11:59;30.90;45.40
25732;DHT22;13585;50.864;4.406;2023-06-26T00:14:25;30.80;45.40
25732;DHT22;13585;50.864;4.406;2023-06-26T00:20:01;30.90;45.50
25732;DHT22;13585;50.864;4.406;2023-06-26T00:22:27;30.90;45.30
25732;DHT22;13585;50.864;4.406;2023-06-26T00:25:26;30.90;45.30
25732;DHT22;13585;50.864;4.406;2023-06-26T00:27:58;30.80;45.30
25732;DHT22;13585;50.864;4.406;2023-06-26T00:30:24;30.80;45.30
25732;DHT22;13585;50.864;4.406;2023-06-26T00:33:21;30.90;45.20
25732;DHT22;13585;50.864;4.406;2023-06-26T00:35:47;30.90;45.10
25732;DHT22;13585;50.864;4.406;2023-06-26T00:38:23;30.90;45.00
25732;DHT22;13585;50.864;4.406;2023-06-26T00:41:01;30.80;45.00
25732;DHT22;13585;50.864;4.406;2023-06-26T00:43:42;30.80;44.90
25732;DHT22;13585;50.864;4.406;2023-06-26T00:46:38;30.80;44.70
25732;DHT22;13585;50.864;4.406;2023-06-26T00:49:04;30.80;44.50
25732;DHT22;13585;50.864;4.406;2023-06-26T00:51:30;30.80;44.20
25732;DHT22;13585;50.864;4.406;2023-06-26T00:54:08;30.80;44.20
25732;DHT22;13585;50.864;4.406;2023-06-26T00:56:34;30.80;44.30
25732;DHT22;13585;50.864;4.406;2023-06-26T00:59:00;30.80;44.10
25732;DHT22;13585;50.864;4.406;2023-06-26T01:01:31;30.80;44.10
25732;DHT22;13585;50.864;4.406;2023-06-26T01:04:21;30.80;44.10
25732;DHT22;13585;50.864;4.406;2023-06-26T01:06:47;30.80;44.00
25732;DHT22;13585;50.864;4.406;2023-06-26T01:09:21;30.80;44.00
25732;DHT22;13585;50.864;4.406;2023-06-26T01:11:47;30.70;43.90
25732;DHT22;13585;50.864;4.406;2023-06-26T01:14:13;30.80;43.90
25732;DHT22;13585;50.864;4.406;2023-06-26T01:17:08;30.70;43.90
25732;DHT22;13585;50.864;4.406;2023-06-26T01:20:04;30.80;44.00
25732;DHT22;13585;50.864;4.406;2023-06-26T01:26:23;30.70;43.80
25732;DHT22;13585;50.864;4.406;2023-06-26T01:28:45;30.70;43.80
25732;DHT22;13585;50.864;4.406;2023-06-26T01:31:11;30.80;43.60
25732;DHT22;13585;50.864;4.406;2023-06-26T01:33:39;30.70;43.60
25732;DHT22;13585;50.864;4.406;2023-06-26T01:36:06;30.70;43.50
25732;DHT22;13585;50.864;4.406;2023-06-26T01:38:32;30.70;43.60
25732;DHT22;13585;50.864;4.406;2023-06-26T01:44:27;30.70;43.70
25732;DHT22;13585;50.864;4.406;2023-06-26T01:47:02;30.70;43.60
25732;DHT22;13585;50.864;4.406;2023-06-26T01:49:33;30.70;43.50
25732;DHT22;13585;50.864;4.406;2023-06-26T01:52:25;30.70;43.50
25732;DHT22;13585;50.864;4.406;2023-06-26T01:57:31;30.70;43.50
25732;DHT22;13585;50.864;4.406;2023-06-26T02:00:01;30.70;43.50
25732;DHT22;13585;50.864;4.406;2023-06-26T02:02:34;30.70;43.60
25732;DHT22;13585;50.864;4.406;2023-06-26T02:05:00;30.60;43.60
25732;DHT22;13585;50.864;4.406;2023-06-26T02:07:34;30.70;43.60
25732;DHT22;13585;50.864;4.406;2023-06-26T02:10:00;30.60;43.80
25732;DHT22;13585;50.864;4.406;2023-06-26T02:15:31;30.70;44.50
25732;DHT22;13585;50.864;4.406;2023-06-26T02:17:59;30.60;43.90
25732;DHT22;13585;50.864;4.406;2023-06-26T02:20:25;30.70;44.00
25732;DHT22;13585;50.864;4.406;2023-06-26T02:22:56;30.70;44.00
25732;DHT22;13585;50.864;4.406;2023-06-26T02:25:28;30.60;44.10
25732;DHT22;13585;50.864;4.406;2023-06-26T02:27:53;30.60;44.10
25732;DHT22;13585;50.864;4.406;2023-06-26T02:36:28;30.70;44.20
25732;DHT22;13585;50.864;4.406;2023-06-26T02:39:00;30.60;45.00
25732;DHT22;13585;50.864;4.406;2023-06-26T02:41:28;30.60;44.40
25732;DHT22;13585;50.864;4.406;2023-06-26T02:43:54;30.60;44.50
25732;DHT22;13585;50.864;4.406;2023-06-26T02:46:28;30.60;44.60
25732;DHT22;13585;50.864;4.406;2023-06-26T02:48:54;30.50;44.60
25732;DHT22;13585;50.864;4.406;2023-06-26T02:51:19;30.60;44.70
25732;DHT22;13585;50.864;4.406;2023-06-26T02:53:54;30.60;44.80
25732;DHT22;13585;50.864;4.406;2023-06-26T02:56:25;30.50;44.80
25732;DHT22;13585;50.864;4.406;2023-06-26T02:58:57;30.60;45.00
25732;DHT22;13585;50.864;4.406;2023-06-26T03:01:56;30.60;45.00
25732;DHT22;13585;50.864;4.406;2023-06-26T03:04:24;30.50;45.10
25732;DHT22;13585;50.864;4.406;2023-06-26T03:06:49;30.60;45.10
25732;DHT22;13585;50.864;4.406;2023-06-26T03:09:15;30.50;45.10
25732;DHT22;13585;50.864;4.406;2023-06-26T03:11:42;30.50;45.20
25732;DHT22;13585;50.864;4.406;2023-06-26T03:14:07;30.50;45.30
25732;DHT22;13585;50.864;4.406;2023-06-26T03:16:33;30.50;45.40
25732;DHT22;13585;50.864;4.406;2023-06-26T03:19:26;30.50;45.50
25732;DHT22;13585;50.864;4.406;2023-06-26T03:21:54;30.40;45.60
25732;DHT22;13585;50.864;4.406;2023-06-26T03:24:20;30.40;45.50
25732;DHT22;13585;50.864;4.406;2023-06-26T03:26:46;30.40;45.60
25732;DHT22;13585;50.864;4.406;2023-06-26T03:29:15;30.40;45.80
25732;DHT22;13585;50.864;4.406;2023-06-26T03:31:46;30.40;45.80
25732;DHT22;13585;50.864;4.406;2023-06-26T03:34:11;30.40;45.80
25732;DHT22;13585;50.864;4.406;2023-06-26T03:36:37;30.40;45.90
25732;DHT22;13585;50.864;4.406;2023-06-26T03:39:26;30.40;45.90
25732;DHT22;13585;50.864;4.406;2023-06-26T03:44:55;30.40;46.00
25732;DHT22;13585;50.864;4.406;2023-06-26T03:47:30;30.40;46.00
25732;DHT22;13585;50.864;4.406;2023-06-26T03:50:01;30.40;46.10
25732;DHT22;13585;50.864;4.406;2023-06-26T03:59:28;30.30;46.10
25732;DHT22;13585;50.864;4.406;2023-06-26T04:01:53;30.20;46.20
25732;DHT22;13585;50.864;4.406;2023-06-26T04:04:19;30.30;46.20
25732;DHT22;13585;50.864;4.406;2023-06-26T04:06:48;30.30;46.90
25732;DHT22;13585;50.864;4.406;2023-06-26T04:09:29;30.30;46.30
25732;DHT22;13585;50.864;4.406;2023-06-26T04:11:57;30.30;46.40
25732;DHT22;13585;50.864;4.406;2023-06-26T04:14:25;30.30;46.30
25732;DHT22;13585;50.864;4.406;2023-06-26T04:17:00;30.20;46.20
25732;DHT22;13585;50.864;4.406;2023-06-26T04:19:31;30.20;46.40
25732;DHT22;13585;50.864;4.406;2023-06-26T04:22:24;30.10;46.40
25732;DHT22;13585;50.864;4.406;2023-06-26T04:31:25;30.10;46.40
25732;DHT22;13585;50.864;4.406;2023-06-26T04:33:50;30.00;46.30
25732;DHT22;13585;50.864;4.406;2023-06-26T04:36:54;30.10;46.40
25732;DHT22;13585;50.864;4.406;2023-06-26T04:39:20;30.00;46.50
25732;DHT22;13585;50.864;4.406;2023-06-26T04:41:46;30.10;46.30
25732;DHT22;13585;50.864;4.406;2023-06-26T04:44:22;30.00;46.20
25732;DHT22;13585;50.864;4.406;2023-06-26T04:46:50;30.00;46.20
25732;DHT22;13585;50.864;4.406;2023-06-26T04:49:22;30.00;46.10
25732;DHT22;13585;50.864;4.406;2023-06-26T04:51:48;30.00;46.10
25732;DHT22;13585;50.864;4.406;2023-06-26T04:54:19;30.00;46.00
25732;DHT22;13585;50.864;4.406;2023-06-26T04:56:56;30.00;46.60
25732;DHT22;13585;50.864;4.406;2023-06-26T04:59:22;30.00;45.90
25732;DHT22;13585;50.864;4.406;2023-06-26T05:01:53;30.00;45.70
25732;DHT22;13585;50.864;4.406;2023-06-26T05:04:22;30.00;45.80
25732;DHT22;13585;50.864;4.406;2023-06-26T05:06:48;30.00;45.70
25732;DHT22;13585;50.864;4.406;2023-06-26T05:09:13;30.00;45.50
25732;DHT22;13585;50.864;4.406;2023-06-26T05:11:51;30.00;45.50
25732;DHT22;13585;50.864;4.406;2023-06-26T05:14:17;30.00;45.60
25732;DHT22;13585;50.864;4.406;2023-06-26T05:16:42;30.10;45.50
25732;DHT22;13585;50.864;4.406;2023-06-26T05:19:11;30.00;46.00
25732;DHT22;13585;50.864;4.406;2023-06-26T05:21:50;30.00;45.20
25732;DHT22;13585;50.864;4.406;2023-06-26T05:24:25;30.10;45.10
25732;DHT22;13585;50.864;4.406;2023-06-26T05:26:51;30.10;45.00
25732;DHT22;13585;50.864;4.406;2023-06-26T05:29:17;30.00;44.70
25732;DHT22;13585;50.864;4.406;2023-06-26T05:31:44;30.00;44.70
25732;DHT22;13585;50.864;4.406;2023-06-26T05:34:15;30.10;44.60
25732;DHT22;13585;50.864;4.406;2023-06-26T05:37:00;30.00;44.60
25732;DHT22;13585;50.864;4.406;2023-06-26T05:42:52;30.00;44.60
25732;DHT22;13585;50.864;4.406;2023-06-26T05:45:18;30.00;44.30
25732;DHT22;13585;50.864;4.406;2023-06-26T05:47:43;30.00;44.00
25732;DHT22;13585;50.864;4.406;2023-06-26T05:50:10;29.90;44.20
25732;DHT22;13585;50.864;4.406;2023-06-26T05:52:36;29.80;44.30
25732;DHT22;13585;50.864;4.406;2023-06-26T05:55:02;29.80;44.40
25732;DHT22;13585;50.864;4.406;2023-06-26T05:57:29;29.90;44.40
25732;DHT22;13585;50.864;4.406;2023-06-26T05:59:59;29.90;44.40
25732;DHT22;13585;50.864;4.406;2023-06-26T06:02:24;29.90;44.50
25732;DHT22;13585;50.864;4.406;2023-06-26T06:04:50;29.90;44.50
25732;DHT22;13585;50.864;4.406;2023-06-26T06:07:16;29.90;44.50
25732;DHT22;13585;50.864;4.406;2023-06-26T06:09:41;29.90;44.40
25732;DHT22;13585;50.864;4.406;2023-06-26T06:12:10;29.90;44.50
25732;DHT22;13585;50.864;4.406;2023-06-26T06:14:38;30.00;44.60
25732;DHT22;13585;50.864;4.406;2023-06-26T06:17:04;30.00;44.30
25732;DHT22;13585;50.864;4.406;2023-06-26T06:19:29;30.00;44.40
25732;DHT22;13585;50.864;4.406;2023-06-26T06:21:55;30.00;44.30
25732;DHT22;13585;50.864;4.406;2023-06-26T06:24:21;30.00;44.20
25732;DHT22;13585;50.864;4.406;2023-06-26T06:26:46;30.00;44.20
25732;DHT22;13585;50.864;4.406;2023-06-26T06:29:12;30.00;44.10
25732;DHT22;13585;50.864;4.406;2023-06-26T06:31:38;30.00;44.10
25732;DHT22;13585;50.864;4.406;2023-06-26T06:34:03;30.10;44.10
25732;DHT22;13585;50.864;4.406;2023-06-26T06:36:52;30.10;43.90
25732;DHT22;13585;50.864;4.406;2023-06-26T06:39:18;30.10;43.80
25732;DHT22;13585;50.864;4.406;2023-06-26T06:41:43;30.10;43.80
25732;DHT22;13585;50.864;4.406;2023-06-26T06:44:09;30.10;43.80
25732;DHT22;13585;50.864;4.406;2023-06-26T06:46:41;30.10;43.60
25732;DHT22;13585;50.864;4.406;2023-06-26T06:49:24;30.10;43.60
25732;DHT22;13585;50.864;4.406;2023-06-26T06:51:51;30.10;43.60
25732;DHT22;13585;50.864;4.406;2023-06-26T06:54:16;30.20;43.40
25732;DHT22;13585;50.864;4.406;2023-06-26T06:56:43;30.20;43.30
25732;DHT22;13585;50.864;4.406;2023-06-26T06:59:08;30.20;43.30
25732;DHT22;13585;50.864;4.406;2023-06-26T07:01:38;30.20;43.40
25732;DHT22;13585;50.864;4.406;2023-06-26T07:04:03;30.20;43.30
25732;DHT22;13585;50.864;4.406;2023-06-26T07:06:30;30.20;43.20
25732;DHT22;13585;50.864;4.406;2023-06-26T07:08:55;30.10;43.10
25732;DHT22;13585;50.864;4.406;2023-06-26T07:11:21;30.20;43.10
25732;DHT22;13585;50.864;4.406;2023-06-26T07:13:46;30.20;43.00
25732;DHT22;13585;50.864;4.406;2023-06-26T07:16:12;30.30;43.70
25732;DHT22;13585;50.864;4.406;2023-06-26T07:18:41;30.30;43.00
25732;DHT22;13585;50.864;4.406;2023-06-26T07:21:07;30.30;42.90
25732;DHT22;13585;50.864;4.406;2023-06-26T07:26:46;30.30;42.90
25732;DHT22;13585;50.864;4.406;2023-06-26T07:29:20;30.30;42.70
25732;DHT22;13585;50.864;4.406;2023-06-26T07:31:48;30.30;42.70
25732;DHT22;13585;50.864;4.406;2023-06-26T07:34:17;30.30;42.60
25732;DHT22;13585;50.864;4.406;2023-06-26T07:36:45;30.30;42.50
25732;DHT22;13585;50.864;4.406;2023-06-26T07:39:20;30.30;42.70
25732;DHT22;13585;50.864;4.406;2023-06-26T07:41:48;30.30;42.70
25732;DHT22;13585;50.864;4.406;2023-06-26T07:44:14;30.40;42.60
25732;DHT22;13585;50.864;4.406;2023-06-26T07:46:39;30.40;42.50
25732;DHT22;13585;50.864;4.406;2023-06-26T07:49:19;30.40;42.40
25732;DHT22;13585;50.864;4.406;2023-06-26T07:51:51;30.40;42.40
25732;DHT22;13585;50.864;4.406;2023-06-26T07:54:17;30.40;42.30
25732;DHT22;13585;50.864;4.406;2023-06-26T07:56:58;30.40;42.10
25732;DHT22;13585;50.864;4.406;2023-06-26T08:00:20;30.40;42.20
25732;DHT22;13585;50.864;4.406;2023-06-26T08:02:52;30.40;42.10
25732;DHT22;13585;50.864;4.406;2023-06-26T08:05:19;30.40;42.00
25732;DHT22;13585;50.864;4.406;2023-06-26T08:07:54;30.40;42.00
25732;DHT22;13585;50.864;4.406;2023-06-26T08:10:19;30.40;41.90
25732;DHT22;13585;50.864;4.406;2023-06-26T08:12:45;30.40;41.80
25732;DHT22;13585;50.864;4.406;2023-06-26T08:15:12;30.30;41.80
25732;DHT22;13585;50.864;4.406;2023-06-26T08:17:38;30.30;41.60
25732;DHT22;13585;50.864;4.406;2023-06-26T08:20:05;30.20;42.20
25732;DHT22;13585;50.864;4.406;2023-06-26T08:22:36;30.20;41.60
25732;DHT22;13585;50.864;4.406;2023-06-26T08:25:04;30.20;41.70
25732;DHT22;13585;50.864;4.406;2023-06-26T08:27:31;30.20;41.80
25732;DHT22;13585;50.864;4.406;2023-06-26T08:29:57;30.20;41.80
25732;DHT22;13585;50.864;4.406;2023-06-26T08:32:22;30.20;41.60
25732;DHT22;13585;50.864;4.406;2023-06-26T08:34:48;30.10;41.60
25732;DHT22;13585;50.864;4.406;2023-06-26T08:37:14;30.10;41.50
25732;DHT22;13585;50.864;4.406;2023-06-26T08:39:39;30.10;41.50
25732;DHT22;13585;50.864;4.406;2023-06-26T08:42:09;30.10;41.60
25732;DHT22;13585;50.864;4.406;2023-06-26T08:44:49;29.90;41.50
25732;DHT22;13585;50.864;4.406;2023-06-26T08:52:40;30.00;41.50
25732;DHT22;13585;50.864;4.406;2023-06-26T08:55:18;30.10;41.50
25732;DHT22;13585;50.864;4.406;2023-06-26T08:57:47;30.00;41.30
25732;DHT22;13585;50.864;4.406;2023-06-26T09:00:50;30.00;41.10
25732;DHT22;13585;50.864;4.406;2023-06-26T09:03:17;29.90;41.00
25732;DHT22;13585;50.864;4.406;2023-06-26T09:05:42;30.10;40.80
25732;DHT22;13585;50.864;4.406;2023-06-26T09:08:08;30.00;40.70
25732;DHT22;13585;50.864;4.406;2023-06-26T09:10:37;30.00;40.50
25732;DHT22;13585;50.864;4.406;2023-06-26T09:13:03;30.00;40.40
25732;DHT22;13585;50.864;4.406;2023-06-26T09:15:46;30.00;40.30
25732;DHT22;13585;50.864;4.406;2023-06-26T09:18:12;29.90;40.30
25732;DHT22;13585;50.864;4.406;2023-06-26T09:20:38;30.00;40.00
25732;DHT22;13585;50.864;4.406;2023-06-26T09:23:07;29.90;39.90
25732;DHT22;13585;50.864;4.406;2023-06-26T09:28:11;29.90;39.50
25732;DHT22;13585;50.864;4.406;2023-06-26T09:38:18;30.00;40.30
25732;DHT22;13585;50.864;4.406;2023-06-26T09:40:44;30.10;40.50
25732;DHT22;13585;50.864;4.406;2023-06-26T09:43:13;30.10;40.50
25732;DHT22;13585;50.864;4.406;2023-06-26T09:45:42;30.10;40.60
25732;DHT22;13585;50.864;4.406;2023-06-26T09:48:27;30.20;40.60
25732;DHT22;13585;50.864;4.406;2023-06-26T09:51:04;30.30;40.60
25732;DHT22;13585;50.864;4.406;2023-06-26T09:53:35;30.20;40.60
25732;DHT22;13585;50.864;4.406;2023-06-26T09:56:23;30.30;40.60
25732;DHT22;13585;50.864;4.406;2023-06-26T09:59:03;30.30;40.50
25732;DHT22;13585;50.864;4.406;2023-06-26T10:01:32;30.30;40.50
25732;DHT22;13585;50.864;4.406;2023-06-26T10:03:58;30.30;40.60
25732;DHT22;13585;50.864;4.406;2023-06-26T10:06:46;30.40;40.60
25732;DHT22;13585;50.864;4.406;2023-06-26T10:09:46;30.30;40.70
25732;DHT22;13585;50.864;4.406;2023-06-26T10:12:27;30.40;40.80
25732;DHT22;13585;50.864;4.406;2023-06-26T10:14:53;30.40;40.80
25732;DHT22;13585;50.864;4.406;2023-06-26T10:17:31;30.40;40.80
25732;DHT22;13585;50.864;4.406;2023-06-26T10:20:27;30.40;40.80
25732;DHT22;13585;50.864;4.406;2023-06-26T10:23:02;30.40;40.80
25732;DHT22;13585;50.864;4.406;2023-06-26T10:25:45;30.40;40.70
25732;DHT22;13585;50.864;4.406;2023-06-26T10:28:19;30.40;40.80
25732;DHT22;13585;50.864;4.406;2023-06-26T10:30:49;30.40;40.70
25732;DHT22;13585;50.864;4.406;2023-06-26T10:33:25;30.40;40.70
25732;DHT22;13585;50.864;4.406;2023-06-26T10:35:51;30.40;40.80
25732;DHT22;13585;50.864;4.406;2023-06-26T10:38:20;30.40;40.70
25732;DHT22;13585;50.864;4.406;2023-06-26T10:41:21;30.40;40.70
25732;DHT22;13585;50.864;4.406;2023-06-26T10:46:50;30.60;40.60
25732;DHT22;13585;50.864;4.406;2023-06-26T10:49:18;30.60;40.50
25732;DHT22;13585;50.864;4.406;2023-06-26T10:52:08;30.50;40.50
25732;DHT22;13585;50.864;4.406;2023-06-26T10:54:49;30.50;40.80
25732;DHT22;13585;50.864;4.406;2023-06-26T10:57:23;30.40;40.90
25732;DHT22;13585;50.864;4.406;2023-06-26T11:00:11;30.50;40.70
25732;DHT22;13585;50.864;4.406;2023-06-26T11:03:22;30.40;40.60
25732;DHT22;13585;50.864;4.406;2023-06-26T11:06:33;30.50;40.70
25732;DHT22;13585;50.864;4.406;2023-06-26T11:57:17;30.60;41.80
25732;DHT22;13585;50.864;4.406;2023-06-26T12:22:34;30.60;40.30
25732;DHT22;13585;50.864;4.406;2023-06-26T12:28:53;30.60;38.40
25732;DHT22;13585;50.864;4.406;2023-06-26T12:31:24;30.50;37.70
25732;DHT22;13585;50.864;4.406;2023-06-26T12:34:09;30.50;37.40
25732;DHT22;13585;50.864;4.406;2023-06-26T12:37:16;30.50;37.40
25732;DHT22;13585;50.864;4.406;2023-06-26T12:43:06;30.50;37.50
25732;DHT22;13585;50.864;4.406;2023-06-26T12:45:55;30.50;37.60
25732;DHT22;13585;50.864;4.406;2023-06-26T12:48:54;30.50;37.10
25732;DHT22;13585;50.864;4.406;2023-06-26T12:51:28;30.40;36.60
25732;DHT22;13585;50.864;4.406;2023-06-26T12:54:15;30.40;36.10
25732;DHT22;13585;50.864;4.406;2023-06-26T12:57:06;30.30;36.10
25732;DHT22;13585;50.864;4.406;2023-06-26T12:59:52;30.30;35.80
25732;DHT22;13585;50.864;4.406;2023-06-26T13:02:21;30.30;35.70
25732;DHT22;13585;50.864;4.406;2023-06-26T13:04:47;30.30;35.40
25732;DHT22;13585;50.864;4.406;2023-06-26T13:07:13;30.30;35.50
25732;DHT22;13585;50.864;4.406;2023-06-26T13:09:42;30.30;36.00
25732;DHT22;13585;50.864;4.406;2023-06-26T13:12:11;30.30;36.10
25732;DHT22;13585;50.864;4.406;2023-06-26T13:14:39;30.30;36.20
25732;DHT22;13585;50.864;4.406;2023-06-26T13:17:05;30.30;35.90
25732;DHT22;13585;50.864;4.406;2023-06-26T13:19:58;30.30;35.70
25732;DHT22;13585;50.864;4.406;2023-06-26T13:22:24;30.30;35.60
25732;DHT22;13585;50.864;4.406;2023-06-26T13:24:50;30.30;35.50
25732;DHT22;13585;50.864;4.406;2023-06-26T13:27:24;30.30;35.50
25732;DHT22;13585;50.864;4.406;2023-06-26T13:29:52;30.20;35.60
25732;DHT22;13585;50.864;4.406;2023-06-26T13:32:33;30.20;35.60
25732;DHT22;13585;50.864;4.406;2023-06-26T13:34:59;30.20;35.60
25732;DHT22;13585;50.864;4.406;2023-06-26T13:37:27;30.20;35.40
25732;DHT22;13585;50.864;4.406;2023-06-26T13:43:22;30.20;35.50
25732;DHT22;13585;50.864;4.406;2023-06-26T13:48:59;30.20;35.30
25732;DHT22;13585;50.864;4.406;2023-06-26T13:51:28;30.10;35.50
25732;DHT22;13585;50.864;4.406;2023-06-26T13:54:06;30.20;35.70
25732;DHT22;13585;50.864;4.406;2023-06-26T13:57:13;30.10;35.70
25732;DHT22;13585;50.864;4.406;2023-06-26T14:00:04;30.10;35.90
25732;DHT22;13585;50.864;4.406;2023-06-26T14:02:29;30.10;35.90
25732;DHT22;13585;50.864;4.406;2023-06-26T14:05:31;30.20;35.60
25732;DHT22;13585;50.864;4.406;2023-06-26T14:08:15;30.10;35.60
25732;DHT22;13585;50.864;4.406;2023-06-26T14:11:00;30.10;35.60
25732;DHT22;13585;50.864;4.406;2023-06-26T14:13:26;30.10;35.10
25732;DHT22;13585;50.864;4.406;2023-06-26T14:15:55;30.20;35.10
25732;DHT22;13585;50.864;4.406;2023-06-26T14:18:40;30.20;34.90
25732;DHT22;13585;50.864;4.406;2023-06-26T14:21:36;30.20;35.10
25732;DHT22;13585;50.864;4.406;2023-06-26T14:24:19;30.10;35.20
25732;DHT22;13585;50.864;4.406;2023-06-26T14:26:54;30.20;35.00
25732;DHT22;13585;50.864;4.406;2023-06-26T14:36:01;30.10;34.90
25732;DHT22;13585;50.864;4.406;2023-06-26T14:41:20;30.20;35.40
25732;DHT22;13585;50.864;4.406;2023-06-26T14:44:23;30.10;34.90
25732;DHT22;13585;50.864;4.406;2023-06-26T14:50:20;30.10;34.30
25732;DHT22;13585;50.864;4.406;2023-06-26T14:52:54;30.10;34.20
25732;DHT22;13585;50.864;4.406;2023-06-26T14:55:20;30.10;34.20
25732;DHT22;13585;50.864;4.406;2023-06-26T14:57:46;30.10;34.20
25732;DHT22;13585;50.864;4.406;2023-06-26T15:00:12;30.10;34.40
25732;DHT22;13585;50.864;4.406;2023-06-26T15:02:37;30.00;34.40
25732;DHT22;13585;50.864;4.406;2023-06-26T15:05:03;30.00;34.40
25732;DHT22;13585;50.864;4.406;2023-06-26T15:07:29;30.10;34.50
25732;DHT22;13585;50.864;4.406;2023-06-26T15:10:01;30.00;34.50
25732;DHT22;13585;50.864;4.406;2023-06-26T15:12:35;30.10;34.70
25732;DHT22;13585;50.864;4.406;2023-06-26T15:15:01;30.00;34.90
25732;DHT22;13585;50.864;4.406;2023-06-26T15:17:27;30.00;34.80
25732;DHT22;13585;50.864;4.406;2023-06-26T15:19:53;30.00;34.80
25732;DHT22;13585;50.864;4.406;2023-06-26T15:22:22;30.00;35.00
25732;DHT22;13585;50.864;4.406;2023-06-26T15:24:57;30.00;35.20
25732;DHT22;13585;50.864;4.406;2023-06-26T15:27:23;30.00;35.30
25732;DHT22;13585;50.864;4.406;2023-06-26T15:29:50;30.00;35.30
25732;DHT22;13585;50.864;4.406;2023-06-26T15:32:24;30.00;35.50
25732;DHT22;13585;50.864;4.406;2023-06-26T15:34:58;30.00;35.70
25732;DHT22;13585;50.864;4.406;2023-06-26T15:37:30;30.00;35.70
25732;DHT22;13585;50.864;4.406;2023-06-26T15:39:58;29.90;35.50
25732;DHT22;13585;50.864;4.406;2023-06-26T15:42:29;30.10;35.50
25732;DHT22;13585;50.864;4.406;2023-06-26T15:45:01;30.00;35.50
25732;DHT22;13585;50.864;4.406;2023-06-26T15:47:26;30.00;35.60
25732;DHT22;13585;50.864;4.406;2023-06-26T15:49:57;30.10;35.60
25732;DHT22;13585;50.864;4.406;2023-06-26T15:52:26;30.00;35.30
25732;DHT22;13585;50.864;4.406;2023-06-26T15:55:09;30.00;35.30
25732;DHT22;13585;50.864;4.406;2023-06-26T15:57:35;29.90;35.40
25732;DHT22;13585;50.864;4.406;2023-06-26T16:00:01;29.90;35.30
25732;DHT22;13585;50.864;4.406;2023-06-26T16:05:25;29.80;34.70
25732;DHT22;13585;50.864;4.406;2023-06-26T16:07:51;29.80;34.50
25732;DHT22;13585;50.864;4.406;2023-06-26T16:13:23;29.80;34.50
25732;DHT22;13585;50.864;4.406;2023-06-26T16:16:23;29.80;34.40
25732;DHT22;13585;50.864;4.406;2023-06-26T16:19:00;29.70;35.30
25732;DHT22;13585;50.864;4.406;2023-06-26T16:24:54;29.80;34.50
25732;DHT22;13585;50.864;4.406;2023-06-26T16:30:33;29.70;34.50
25732;DHT22;13585;50.864;4.406;2023-06-26T16:33:11;29.70;34.30
25732;DHT22;13585;50.864;4.406;2023-06-26T16:35:39;29.70;34.30
25732;DHT22;13585;50.864;4.406;2023-06-26T16:38:26;29.70;34.20
25732;DHT22;13585;50.864;4.406;2023-06-26T16:41:00;29.70;34.30
25732;DHT22;13585;50.864;4.406;2023-06-26T16:43:48;29.70;34.70
25732;DHT22;13585;50.864;4.406;2023-06-26T16:46:16;29.70;34.70
25732;DHT22;13585;50.864;4.406;2023-06-26T16:48:41;29.70;35.00
25732;DHT22;13585;50.864;4.406;2023-06-26T16:51:28;29.70;35.10
25732;DHT22;13585;50.864;4.406;2023-06-26T16:53:56;29.70;35.30
25732;DHT22;13585;50.864;4.406;2023-06-26T16:56:50;29.60;35.20
25732;DHT22;13585;50.864;4.406;2023-06-26T16:59:34;29.60;35.40
25732;DHT22;13585;50.864;4.406;2023-06-26T17:02:24;29.60;35.40
25732;DHT22;13585;50.864;4.406;2023-06-26T17:05:21;29.60;35.50
25732;DHT22;13585;50.864;4.406;2023-06-26T17:07:46;29.60;35.50
25732;DHT22;13585;50.864;4.406;2023-06-26T17:10:18;29.70;35.40
25732;DHT22;13585;50.864;4.406;2023-06-26T17:12:57;29.50;35.40
25732;DHT22;13585;50.864;4.406;2023-06-26T17:15:23;29.60;35.60
25732;DHT22;13585;50.864;4.406;2023-06-26T17:17:55;29.60;35.80
25732;DHT22;13585;50.864;4.406;2023-06-26T17:29:06;29.70;36.70
25732;DHT22;13585;50.864;4.406;2023-06-26T17:31:32;29.70;37.00
25732;DHT22;13585;50.864;4.406;2023-06-26T17:37:35;29.70;37.30
25732;DHT22;13585;50.864;4.406;2023-06-26T17:40:04;29.70;37.40
25732;DHT22;13585;50.864;4.406;2023-06-26T17:46:18;29.80;37.90
25732;DHT22;13585;50.864;4.406;2023-06-26T17:55:43;29.80;38.20
25732;DHT22;13585;50.864;4.406;2023-06-26T17:59:05;29.80;38.40
25732;DHT22;13585;50.864;4.406;2023-06-26T18:01:32;29.80;38.60
25732;DHT22;13585;50.864;4.406;2023-06-26T18:10:41;29.80;39.10
25732;DHT22;13585;50.864;4.406;2023-06-26T18:13:07;29.80;39.20
25732;DHT22;13585;50.864;4.406;2023-06-26T18:18:56;29.80;39.50
25732;DHT22;13585;50.864;4.406;2023-06-26T18:21:24;29.80;39.30
25732;DHT22;13585;50.864;4.406;2023-06-26T18:23:59;29.80;39.20
25732;DHT22;13585;50.864;4.406;2023-06-26T18:26:34;29.70;39.20
25732;DHT22;13585;50.864;4.406;2023-06-26T18:29:34;29.70;39.20
25732;DHT22;13585;50.864;4.406;2023-06-26T18:32:18;29.80;39.70
25732;DHT22;13585;50.864;4.406;2023-06-26T18:37:19;29.80;39.00
25732;DHT22;13585;50.864;4.406;2023-06-26T18:39:46;29.80;38.90
25732;DHT22;13585;50.864;4.406;2023-06-26T18:42:12;29.80;38.80
25732;DHT22;13585;50.864;4.406;2023-06-26T18:44:38;29.80;38.90
25732;DHT22;13585;50.864;4.406;2023-06-26T18:47:03;29.80;38.70
25732;DHT22;13585;50.864;4.406;2023-06-26T18:49:35;29.80;38.70
25732;DHT22;13585;50.864;4.406;2023-06-26T18:52:01;29.70;38.70
25732;DHT22;13585;50.864;4.406;2023-06-26T18:55:04;29.70;38.70
25732;DHT22;13585;50.864;4.406;2023-06-26T19:00:01;29.70;38.50
25732;DHT22;13585;50.864;4.406;2023-06-26T19:02:27;29.80;38.30
25732;DHT22;13585;50.864;4.406;2023-06-26T19:04:56;29.70;38.00
25732;DHT22;13585;50.864;4.406;2023-06-26T19:07:23;29.70;38.00
25732;DHT22;13585;50.864;4.406;2023-06-26T19:09:52;29.70;37.80
25732;DHT22;13585;50.864;4.406;2023-06-26T19:12:23;29.70;37.70
25732;DHT22;13585;50.864;4.406;2023-06-26T19:14:53;29.70;37.80
25732;DHT22;13585;50.864;4.406;2023-06-26T19:17:24;29.60;37.40
25732;DHT22;13585;50.864;4.406;2023-06-26T19:22:44;29.60;36.70
25732;DHT22;13585;50.864;4.406;2023-06-26T19:25:36;29.60;36.60
25732;DHT22;13585;50.864;4.406;2023-06-26T19:28:29;29.60;36.40
25732;DHT22;13585;50.864;4.406;2023-06-26T19:31:06;29.50;36.50
25732;DHT22;13585;50.864;4.406;2023-06-26T19:33:38;29.60;36.40
25732;DHT22;13585;50.864;4.406;2023-06-26T19:39:31;29.50;36.40
25732;DHT22;13585;50.864;4.406;2023-06-26T19:47:03;29.40;36.60
25732;DHT22;13585;50.864;4.406;2023-06-26T19:49:41;29.50;36.80